createdAt,value
2023-03-27T00:00:23.342Z,93915.00
2023-03-27T00:04:23.354Z,93917.00
2023-03-27T00:08:23.412Z,93919.00
2023-03-27T00:12:23.500Z,93917.00
2023-03-27T00:16:23.668Z,93923.00
2023-03-27T00:20:23.577Z,93917.00
2023-03-27T00:24:23.643Z,93923.00
2023-03-27T00:28:23.707Z,93924.00
2023-03-27T00:32:23.727Z,93930.00
2023-03-27T00:36:23.784Z,93932.00
2023-03-27T00:40:23.817Z,93938.00
2023-03-27T00:44:23.892Z,93930.00
2023-03-27T00:48:23.944Z,93926.00
2023-03-27T00:52:23.999Z,93924.00
2023-03-27T00:56:24.073Z,93921.00
2023-03-27T01:00:24.207Z,93934.00
2023-03-27T01:04:24.196Z,93940.00
2023-03-27T01:08:24.255Z,93942.00
2023-03-27T01:12:24.305Z,93938.00
2023-03-27T01:16:24.401Z,93946.00
2023-03-27T01:20:24.463Z,93940.00
2023-03-27T01:24:24.541Z,93938.00
2023-03-27T01:28:24.590Z,93932.00
2023-03-27T01:32:24.904Z,93942.00
2023-03-27T01:36:24.725Z,93940.00
2023-03-27T01:40:24.786Z,93944.00
2023-03-27T01:44:24.869Z,93942.00
2023-03-27T01:48:24.909Z,93946.00
2023-03-27T01:52:24.785Z,93940.00
2023-03-27T01:56:24.715Z,93942.00
2023-03-27T02:00:24.673Z,93934.00
2023-03-27T02:04:24.665Z,93926.00
2023-03-27T02:08:24.590Z,93913.00
2023-03-27T02:12:24.568Z,93915.00
2023-03-27T02:16:24.612Z,93913.00
2023-03-27T02:20:24.658Z,93907.00
2023-03-27T02:24:24.473Z,93907.00
2023-03-27T02:28:24.446Z,93911.00
2023-03-27T02:32:24.484Z,93917.00
2023-03-27T02:36:24.396Z,93917.00
2023-03-27T02:40:24.388Z,93911.00
2023-03-27T02:44:24.478Z,93913.00
2023-03-27T02:48:24.533Z,93917.00
2023-03-27T02:52:24.625Z,93911.00
2023-03-27T02:56:24.665Z,93919.00
2023-03-27T03:00:24.744Z,93928.00
2023-03-27T03:04:24.797Z,93938.00
2023-03-27T03:08:24.887Z,93942.00
2023-03-27T03:12:24.965Z,93938.00
2023-03-27T03:16:25.040Z,93942.00
2023-03-27T03:20:25.056Z,93950.00
2023-03-27T03:24:25.148Z,93950.00
2023-03-27T03:28:25.203Z,93950.00
2023-03-27T03:32:25.290Z,93950.00
2023-03-27T03:36:25.298Z,93956.00
2023-03-27T03:40:25.406Z,93956.00
2023-03-27T03:44:25.482Z,93958.00
2023-03-27T03:48:25.561Z,93968.00
2023-03-27T03:52:25.653Z,93971.00
2023-03-27T03:56:25.765Z,93973.00
2023-03-27T04:00:25.835Z,93983.00
2023-03-27T04:04:25.928Z,93985.00
2023-03-27T04:08:26.007Z,93995.00
2023-03-27T04:12:26.101Z,93995.00
2023-03-27T04:16:26.160Z,93997.00
2023-03-27T04:20:26.196Z,93999.00
2023-03-27T04:24:27.123Z,94005.00
2023-03-27T04:28:26.356Z,94005.00
2023-03-27T04:32:26.401Z,94005.00
2023-03-27T04:36:26.455Z,94021.00
2023-03-27T04:40:26.516Z,94017.00
2023-03-27T04:44:26.594Z,94025.00
2023-03-27T04:48:26.734Z,94030.00
2023-03-27T04:52:26.697Z,94046.00
2023-03-27T04:56:26.746Z,94050.00
2023-03-27T05:00:26.816Z,94062.00
2023-03-27T05:04:26.861Z,94066.00
2023-03-27T05:08:27.157Z,94073.00
2023-03-27T05:12:27.006Z,94081.00
2023-03-27T05:16:27.252Z,94093.00
2023-03-27T05:20:27.170Z,94097.00
2023-03-27T05:24:27.660Z,94103.00
2023-03-27T05:28:27.685Z,94120.00
2023-03-27T05:32:27.756Z,94136.00
2023-03-27T05:36:27.444Z,94140.00
2023-03-27T05:40:27.690Z,94150.00
2023-03-27T05:44:27.692Z,94156.00
2023-03-27T05:48:27.723Z,94168.00
2023-03-27T05:52:28.612Z,94168.00
2023-03-27T05:56:27.518Z,94179.00
2023-03-27T06:00:28.708Z,94187.00
2023-03-27T06:04:28.755Z,94203.00
2023-03-27T06:08:27.705Z,94215.00
2023-03-27T06:12:27.646Z,94220.00
2023-03-27T06:16:27.815Z,94240.00
2023-03-27T06:20:27.737Z,94246.00
2023-03-27T06:24:28.189Z,94254.00
2023-03-27T06:28:28.220Z,94271.00
2023-03-27T06:32:28.237Z,94287.00
2023-03-27T06:36:28.229Z,94285.00
2023-03-27T06:40:28.298Z,94307.00
2023-03-27T06:44:28.209Z,94321.00
2023-03-27T06:48:28.738Z,94332.00
2023-03-27T06:52:28.720Z,94344.00
2023-03-27T06:56:28.699Z,94356.00
2023-03-27T07:00:28.703Z,94381.00
2023-03-27T07:04:28.700Z,94387.00
2023-03-27T07:08:29.229Z,94401.00
2023-03-27T07:12:28.754Z,94416.00
2023-03-27T07:16:29.227Z,94416.00
2023-03-27T07:20:29.257Z,94442.00
2023-03-27T07:24:29.248Z,94448.00
2023-03-27T07:28:29.215Z,94473.00
2023-03-27T07:32:36.630Z,94479.00
2023-03-27T07:36:29.211Z,94495.00
2023-03-27T07:40:37.307Z,94503.00
2023-03-27T07:48:28.211Z,94528.00
2023-03-27T07:52:29.253Z,94540.00
2023-03-27T07:56:29.240Z,94560.00
2023-03-27T08:00:29.248Z,94567.00
2023-03-27T08:04:29.779Z,94573.00
2023-03-27T08:08:29.389Z,94597.00
2023-03-27T08:12:29.309Z,94607.00
2023-03-27T08:20:28.234Z,94611.00
2023-03-27T08:28:28.563Z,94650.00
2023-03-27T08:36:29.256Z,94673.00
2023-03-27T08:44:29.259Z,94685.00
2023-03-27T08:52:29.766Z,94705.00
2023-03-27T09:00:29.797Z,94724.00
2023-03-27T09:08:29.857Z,94736.00
2023-03-27T09:16:29.809Z,94746.00
2023-03-27T09:24:29.755Z,94769.00
2023-03-27T09:32:33.279Z,94779.00
2023-03-27T09:40:29.260Z,94795.00
2023-03-27T09:48:29.297Z,94785.00
2023-03-27T09:56:29.417Z,94787.00
2023-03-27T10:04:29.316Z,94799.00
2023-03-27T10:12:29.811Z,94803.00
2023-03-27T10:16:30.895Z,94811.00
2023-03-27T10:24:29.500Z,94824.00
2023-03-27T10:32:29.857Z,94846.00
2023-03-27T10:40:29.742Z,94848.00
2023-03-27T10:48:29.784Z,94852.00
2023-03-27T10:56:30.287Z,94852.00
2023-03-27T11:04:30.301Z,94858.00
2023-03-27T11:12:30.797Z,94867.00
2023-03-27T16:24:31.413Z,95322.00
2023-03-27T16:32:31.390Z,95309.00
2023-03-27T16:40:31.398Z,95326.00
2023-03-27T16:44:32.466Z,95322.00
2023-03-27T16:48:32.431Z,95328.00
2023-03-27T16:52:32.456Z,95328.00
2023-03-27T16:56:32.450Z,95328.00
2023-03-27T17:00:32.503Z,95332.00
2023-03-27T17:04:32.550Z,95330.00
2023-03-27T17:08:32.520Z,95340.00
2023-03-27T17:12:32.552Z,95346.00
2023-03-27T17:16:32.609Z,95350.00
2023-03-27T17:20:32.555Z,95358.00
2023-03-27T17:24:38.038Z,95367.00
2023-03-27T17:28:32.574Z,95360.00
2023-03-27T17:32:32.613Z,95373.00
2023-03-27T17:36:41.500Z,95387.00
2023-03-27T17:40:32.472Z,95387.00
2023-03-27T17:44:32.468Z,95395.00
2023-03-27T17:48:32.495Z,95389.00
2023-03-27T17:52:32.436Z,95389.00
2023-03-27T17:56:32.423Z,95403.00
2023-03-27T18:00:32.417Z,95393.00
2023-03-27T18:04:32.426Z,95391.00
2023-03-27T18:08:32.376Z,95403.00
2023-03-27T18:12:32.365Z,95409.00
2023-03-27T18:20:31.371Z,95414.00
2023-03-27T18:28:31.287Z,95428.00
2023-03-27T18:32:32.276Z,95436.00
2023-03-27T18:36:32.285Z,95430.00
2023-03-27T18:40:32.238Z,95422.00
2023-03-27T18:44:32.232Z,95424.00
2023-03-27T18:48:32.183Z,95440.00
2023-03-27T18:52:32.193Z,95448.00
2023-03-27T19:00:31.106Z,95471.00
2023-03-27T19:04:32.091Z,95485.00
2023-03-27T19:12:31.053Z,95487.00
2023-03-27T19:20:31.132Z,95487.00
2023-03-27T19:24:32.215Z,95493.00
2023-03-27T19:28:32.241Z,95499.00
2023-03-27T19:32:32.333Z,95507.00
2023-03-27T19:36:32.369Z,95517.00
2023-03-27T19:40:32.466Z,95524.00
2023-03-27T19:44:32.492Z,95520.00
2023-03-27T19:48:32.565Z,95526.00
2023-03-27T19:52:32.643Z,95534.00
2023-03-27T19:56:32.757Z,95528.00
2023-03-27T20:00:32.797Z,95532.00
2023-03-27T20:04:32.875Z,95540.00
2023-03-27T20:08:33.858Z,95540.00
2023-03-27T20:12:33.232Z,95536.00
2023-03-27T20:16:33.078Z,95524.00
2023-03-27T20:20:33.110Z,95532.00
2023-03-27T20:24:33.154Z,95548.00
2023-03-27T20:28:33.239Z,95556.00
2023-03-27T20:32:33.325Z,95554.00
2023-03-27T20:36:33.316Z,95556.00
2023-03-27T20:40:46.215Z,95544.00
2023-03-27T20:44:33.303Z,95544.00
2023-03-27T20:48:33.244Z,95544.00
2023-03-27T20:52:33.228Z,95538.00
2023-03-27T20:56:33.213Z,95544.00
2023-03-27T21:00:33.392Z,95542.00
2023-03-27T21:04:33.189Z,95538.00
2023-03-27T21:08:33.180Z,95540.00
2023-03-27T21:12:33.147Z,95542.00
2023-03-27T21:16:33.196Z,95538.00
2023-03-27T21:20:35.181Z,95538.00
2023-03-27T21:24:33.110Z,95532.00
2023-03-27T21:28:33.100Z,95526.00
2023-03-27T21:32:33.152Z,95524.00
2023-03-27T21:36:33.154Z,95528.00
2023-03-27T21:40:33.017Z,95532.00
2023-03-27T21:44:32.984Z,95536.00
2023-03-27T21:48:32.991Z,95546.00
2023-03-27T21:52:32.949Z,95548.00
2023-03-27T21:56:32.950Z,95556.00
2023-03-27T22:00:32.923Z,95573.00
2023-03-27T22:04:33.016Z,95577.00
2023-03-27T22:08:32.854Z,95575.00
2023-03-27T22:12:32.825Z,95579.00
2023-03-27T22:16:32.784Z,95589.00
2023-03-27T22:20:32.773Z,95585.00
2023-03-27T22:24:32.854Z,95587.00
2023-03-27T22:28:32.916Z,95583.00
2023-03-27T22:32:33.078Z,95579.00
2023-03-27T22:36:33.140Z,95571.00
2023-03-27T22:40:33.213Z,95587.00
2023-03-27T22:44:33.303Z,95589.00
2023-03-27T22:48:33.385Z,95597.00
2023-03-27T22:52:33.507Z,95609.00
2023-03-27T22:56:33.549Z,95611.00
2023-03-27T23:00:33.642Z,95618.00
2023-03-27T23:56:23.276Z,95628.00
